Time;durP1;ratioP1;P1;durP2;ratioP2;P2;SDS_P1;SDS_P2;PMS_P1;PMS_P2;Temp;Humidity;BMP_temperature;BMP_pressure;BME280_temperature;BME280_humidity;BME280_pressure;Samples;Min_cycle;Max_cycle;Signal;HPM_P1;HPM_P2
2023/01/04 00:01:03;;;;;;;1.85;0.50;;;20.40;70.00;;;;;;5014839;28;20015;-73
2023/01/04 00:03:30;;;;;;;1.70;0.40;;;20.40;70.10;;;;;;5014450;28;20099;-73
2023/01/04 00:06:01;;;;;;;0.20;0.20;;;20.40;70.10;;;;;;5014713;28;20033;-73
2023/01/04 00:08:27;;;;;;;1.02;0.32;;;20.40;70.20;;;;;;5014363;28;20022;-73
2023/01/04 00:10:52;;;;;;;1.88;0.57;;;20.40;70.20;;;;;;5014548;28;20025;-73
2023/01/04 00:13:18;;;;;;;0.40;0.22;;;20.40;70.30;;;;;;5014645;28;20032;-73
2023/01/04 00:15:44;;;;;;;1.50;0.82;;;20.40;70.40;;;;;;5014165;28;20388;-73
2023/01/04 00:18:09;;;;;;;0.88;0.40;;;20.40;70.40;;;;;;5015601;28;20404;-73
2023/01/04 00:20:35;;;;;;;1.00;0.43;;;20.30;70.30;;;;;;5015451;28;20488;-73
2023/01/04 00:23:00;;;;;;;1.33;0.40;;;20.30;70.50;;;;;;5015361;28;20034;-73
2023/01/04 00:25:26;;;;;;;0.80;0.30;;;20.30;70.50;;;;;;5015454;28;20057;-73
2023/01/04 00:27:52;;;;;;;1.50;0.43;;;20.30;70.50;;;;;;5014124;28;20417;-73
2023/01/04 00:30:17;;;;;;;1.27;0.60;;;20.30;70.50;;;;;;5014131;28;20411;-73
2023/01/04 00:32:43;;;;;;;1.13;0.40;;;20.30;70.50;;;;;;5015092;28;20056;-73
2023/01/04 00:35:09;;;;;;;1.15;0.50;;;20.30;70.60;;;;;;5022637;28;20025;-73
2023/01/04 00:37:35;;;;;;;1.17;0.50;;;20.30;70.60;;;;;;5033439;28;20029;-73
2023/01/04 00:40:01;;;;;;;0.90;0.50;;;20.30;70.60;;;;;;5033800;28;20028;-73
2023/01/04 00:42:26;;;;;;;1.80;0.60;;;20.30;70.70;;;;;;5028397;28;20025;-73
2023/01/04 00:44:52;;;;;;;1.17;0.43;;;20.30;70.70;;;;;;5014922;28;20109;-73
2023/01/04 00:47:18;;;;;;;1.52;0.50;;;20.30;70.70;;;;;;5014023;28;20104;-73
2023/01/04 00:49:43;;;;;;;1.05;0.50;;;20.30;70.70;;;;;;5014846;28;20554;-73
2023/01/04 00:52:09;;;;;;;0.73;0.38;;;20.30;70.80;;;;;;5013497;28;20033;-73
2023/01/04 00:54:34;;;;;;;0.80;0.40;;;20.30;70.90;;;;;;5014283;28;20026;-74
2023/01/04 00:57:00;;;;;;;0.38;0.28;;;20.30;70.90;;;;;;5013634;28;20029;-73
2023/01/04 00:59:26;;;;;;;1.75;0.73;;;20.30;70.90;;;;;;5013687;28;20022;-73
2023/01/04 01:01:52;;;;;;;1.60;0.30;;;20.30;70.90;;;;;;5013497;28;20049;-74
2023/01/04 01:04:19;;;;;;;1.85;0.55;;;20.30;70.90;;;;;;5013493;28;20026;-73
2023/01/04 01:06:45;;;;;;;1.85;0.50;;;20.30;71.00;;;;;;5012928;28;20492;-73
2023/01/04 01:09:11;;;;;;;0.88;0.40;;;20.30;71.00;;;;;;5013587;28;20032;-73
2023/01/04 01:11:37;;;;;;;1.27;0.47;;;20.30;71.10;;;;;;5014683;28;20022;-73
2023/01/04 01:14:03;;;;;;;1.52;0.50;;;20.30;71.10;;;;;;5013345;28;20503;-74
2023/01/04 01:16:29;;;;;;;2.22;0.50;;;20.30;71.20;;;;;;5013289;28;20030;-73
2023/01/04 01:18:55;;;;;;;0.85;0.40;;;20.30;71.30;;;;;;5014369;28;20021;-73
2023/01/04 01:21:22;;;;;;;2.05;0.60;;;20.30;71.30;;;;;;5014209;28;20018;-73
2023/01/04 01:23:48;;;;;;;1.55;0.40;;;20.30;71.30;;;;;;5013202;28;20026;-73
2023/01/04 01:26:16;;;;;;;1.77;0.50;;;20.30;71.40;;;;;;5013121;28;20121;-73
2023/01/04 01:28:42;;;;;;;0.95;0.50;;;20.30;71.50;;;;;;5014028;28;20044;-73
2023/01/04 01:31:09;;;;;;;1.83;0.57;;;20.30;71.50;;;;;;5012961;28;20392;-73
2023/01/04 01:33:36;;;;;;;1.45;0.47;;;20.30;71.60;;;;;;5012973;28;20523;-73
2023/01/04 01:36:02;;;;;;;1.77;0.70;;;20.30;71.60;;;;;;5027108;28;20032;-73
2023/01/04 01:38:28;;;;;;;1.35;0.50;;;20.30;71.70;;;;;;5032648;28;20067;-73
2023/01/04 01:40:54;;;;;;;1.08;0.55;;;20.30;71.70;;;;;;5033617;28;20026;-73
2023/01/04 01:43:21;;;;;;;1.70;0.60;;;20.30;71.70;;;;;;5019951;28;20041;-73
2023/01/04 01:45:51;;;;;;;1.30;0.60;;;20.30;71.80;;;;;;5012812;28;20148;-73
2023/01/04 01:48:21;;;;;;;1.00;0.40;;;20.30;71.70;;;;;;5012748;28;20031;-74
2023/01/04 01:51:01;;;;;;;1.92;0.65;;;20.30;71.80;;;;;;5012329;28;20030;-73
2023/01/04 01:53:27;;;;;;;3.08;0.60;;;20.30;71.70;;;;;;5012446;28;20022;-73
2023/01/04 01:55:53;;;;;;;1.73;0.60;;;20.30;71.70;;;;;;5013711;28;20053;-73
2023/01/04 01:58:27;;;;;;;1.38;0.50;;;20.30;71.70;;;;;;5012692;28;20377;-73
2023/01/04 02:00:53;;;;;;;3.30;0.75;;;20.30;71.70;;;;;;5012329;28;20022;-73
2023/01/04 02:03:23;;;;;;;1.08;0.50;;;20.30;71.80;;;;;;5012349;28;20048;-73
2023/01/04 02:05:51;;;;;;;1.75;0.60;;;20.40;71.90;;;;;;5011031;28;20061;-73
2023/01/04 02:08:16;;;;;;;1.08;0.30;;;20.30;71.90;;;;;;5012306;28;20014;-73
2023/01/04 02:10:42;;;;;;;0.90;0.50;;;20.30;71.90;;;;;;5012121;28;20044;-73
2023/01/04 02:13:14;;;;;;;0.70;0.30;;;20.30;72.10;;;;;;5013507;28;20049;-73
2023/01/04 02:16:16;;;;;;;2.05;0.50;;;20.30;72.00;;;;;;5012241;28;20022;-73
2023/01/04 02:18:55;;;;;;;1.55;0.50;;;20.30;72.10;;;;;;5011910;28;20087;-73
2023/01/04 02:22:02;;;;;;;3.00;0.52;;;20.40;72.20;;;;;;5012373;28;20101;-73
2023/01/04 02:25:01;;;;;;;1.35;0.55;;;20.40;72.20;;;;;;4991581;28;20049;-73
2023/01/04 02:28:09;;;;;;;2.25;0.60;;;20.40;72.20;;;;;;4991569;28;20057;-73
2023/01/04 02:30:37;;;;;;;1.58;0.43;;;20.40;72.10;;;;;;4952702;29;20030;-73
2023/01/04 02:33:08;;;;;;;1.42;0.50;;;20.40;72.20;;;;;;4952224;29;20468;-73
2023/01/04 02:35:40;;;;;;;0.93;0.40;;;20.40;72.10;;;;;;4963078;28;20061;-73
2023/01/04 02:38:18;;;;;;;1.23;0.45;;;20.40;72.20;;;;;;4971707;28;20038;-73
2023/01/04 02:40:50;;;;;;;0.80;0.45;;;20.40;72.20;;;;;;4971838;28;20026;-73
2023/01/04 02:46:44;;;;;;;1.90;0.57;;;20.40;72.20;;;;;;4972114;28;20045;-73
2023/01/04 02:51:54;;;;;;;1.52;0.75;;;20.40;72.20;;;;;;4971803;28;20113;-73
2023/01/04 02:54:22;;;;;;;0.80;0.50;;;20.40;72.20;;;;;;4971700;28;20516;-73
2023/01/04 02:57:05;;;;;;;1.48;0.50;;;20.40;72.20;;;;;;4971446;28;20426;-73
2023/01/04 02:59:55;;;;;;;0.95;0.40;;;20.40;72.20;;;;;;4971629;28;20027;-73
2023/01/04 03:08:33;;;;;;;1.73;0.60;;;20.40;72.30;;;;;;5012814;28;20040;-73
2023/01/04 03:14:22;;;;;;;3.30;0.60;;;20.40;72.50;;;;;;5025449;28;20408;-73
2023/01/04 03:16:47;;;;;;;4.22;0.40;;;20.40;72.40;;;;;;5028024;28;20040;-73
2023/01/04 03:19:13;;;;;;;1.40;0.47;;;20.40;72.50;;;;;;5034329;28;20472;-73
2023/01/04 03:21:41;;;;;;;3.40;0.40;;;20.40;72.60;;;;;;5034418;28;20022;-73
2023/01/04 03:35:53;;;;;;;1.65;0.40;;;20.40;72.70;;;;;;5037723;28;20040;-74
2023/01/04 03:50:30;;;;;;;2.90;0.30;;;20.40;72.70;;;;;;5017899;28;20079;-74
2023/01/04 03:52:55;;;;;;;1.02;0.50;;;20.40;72.70;;;;;;5017516;28;20025;-74
2023/01/04 03:55:21;;;;;;;0.85;0.35;;;20.40;72.70;;;;;;5001359;28;20550;-74
2023/01/04 03:57:47;;;;;;;4.25;0.65;;;20.40;72.80;;;;;;5001362;28;20131;-73
2023/01/04 04:00:15;;;;;;;2.95;0.45;;;20.40;72.70;;;;;;5017347;28;20377;-74
2023/01/04 04:02:40;;;;;;;2.33;0.45;;;20.40;72.70;;;;;;5017471;28;20038;-74
2023/01/04 04:10:35;;;;;;;2.03;0.40;;;20.40;73.00;;;;;;5017846;28;20033;-74
2023/01/04 04:13:01;;;;;;;2.25;0.63;;;20.40;72.90;;;;;;5017325;28;20029;-74
2023/01/04 04:15:26;;;;;;;0.75;0.45;;;20.40;73.00;;;;;;5018394;28;20392;-74
2023/01/04 04:17:52;;;;;;;1.00;0.50;;;20.40;72.90;;;;;;5018523;28;20373;-74
2023/01/04 04:20:18;;;;;;;2.28;0.75;;;20.40;72.90;;;;;;5017569;28;20405;-74
2023/01/04 04:22:43;;;;;;;1.20;0.50;;;20.40;72.90;;;;;;5017402;28;20388;-74
2023/01/04 04:25:09;;;;;;;1.33;0.70;;;20.40;72.90;;;;;;5017271;28;20037;-74
2023/01/04 04:27:35;;;;;;;0.82;0.40;;;20.40;73.00;;;;;;5017218;28;20025;-74
2023/01/04 04:30:01;;;;;;;1.85;0.55;;;20.40;72.90;;;;;;5014266;28;20026;-74
2023/01/04 04:32:27;;;;;;;1.63;0.73;;;20.40;72.90;;;;;;5014129;28;20014;-74
2023/01/04 04:34:52;;;;;;;1.75;0.63;;;20.40;73.00;;;;;;5020038;28;20029;-74
2023/01/04 04:37:18;;;;;;;2.17;0.55;;;20.40;73.00;;;;;;5033948;28;20045;-74
2023/01/04 04:39:44;;;;;;;3.35;0.90;;;20.40;73.00;;;;;;5033838;28;20500;-74
2023/01/04 04:42:09;;;;;;;4.38;0.70;;;20.40;73.00;;;;;;5029260;28;20021;-74
2023/01/04 04:44:35;;;;;;;2.05;0.57;;;20.40;73.00;;;;;;5013850;28;20492;-74
2023/01/04 04:47:01;;;;;;;1.17;0.50;;;20.40;73.10;;;;;;5014947;28;20467;-74
2023/01/04 04:49:26;;;;;;;13.43;1.02;;;20.40;73.00;;;;;;5013974;28;20038;-74
2023/01/04 04:51:52;;;;;;;1.88;0.45;;;20.40;73.10;;;;;;5014987;28;20493;-73
2023/01/04 04:54:19;;;;;;;1.65;0.57;;;20.40;73.10;;;;;;5013511;28;20121;-74
2023/01/04 04:56:45;;;;;;;1.35;0.40;;;20.40;73.10;;;;;;5013665;28;20101;-74
2023/01/04 04:59:11;;;;;;;2.42;0.80;;;20.40;73.20;;;;;;5014627;28;20463;-74
2023/01/04 05:01:36;;;;;;;2.75;0.90;;;20.40;73.20;;;;;;5013339;28;20100;-75
2023/01/04 05:04:02;;;;;;;1.40;0.50;;;20.40;73.10;;;;;;5014764;28;20038;-74
2023/01/04 05:06:28;;;;;;;0.40;0.30;;;20.40;73.20;;;;;;5021560;28;20021;-73
2023/01/04 05:08:53;;;;;;;1.48;0.55;;;20.40;73.20;;;;;;5034907;28;20606;-73
2023/01/04 05:14:03;;;;;;;0.50;0.50;;;20.40;73.20;;;;;;5034666;28;20484;-73
2023/01/04 05:16:28;;;;;;;2.22;0.70;;;20.40;73.20;;;;;;5033519;28;20112;-73
2023/01/04 05:18:55;;;;;;;1.25;0.47;;;20.40;73.20;;;;;;5033579;28;20110;-73
2023/01/04 05:21:20;;;;;;;1.75;0.60;;;20.40;73.20;;;;;;5034838;28;20067;-74
2023/01/04 05:23:46;;;;;;;1.38;0.52;;;20.40;73.20;;;;;;5034689;28;20033;-74
2023/01/04 05:26:11;;;;;;;2.50;0.57;;;20.40;73.30;;;;;;5034762;28;20365;-74
2023/01/04 05:28:37;;;;;;;3.40;0.70;;;20.40;73.40;;;;;;5034613;28;20064;-74
2023/01/04 05:31:03;;;;;;;1.90;0.50;;;20.40;73.40;;;;;;5034657;28;20493;-74
2023/01/04 05:33:29;;;;;;;1.23;0.45;;;20.40;73.40;;;;;;5034542;28;20022;-74
2023/01/04 05:35:56;;;;;;;4.03;0.75;;;20.40;73.50;;;;;;5033452;28;20028;-74
2023/01/04 05:38:22;;;;;;;1.50;0.57;;;20.40;73.40;;;;;;5033440;28;20097;-74
2023/01/04 05:40:48;;;;;;;1.42;0.70;;;20.40;73.50;;;;;;5016751;28;20591;-74
2023/01/04 05:43:15;;;;;;;0.65;0.52;;;20.40;73.40;;;;;;5032749;28;20036;-74
2023/01/04 05:45:42;;;;;;;0.98;0.40;;;20.40;73.40;;;;;;5033337;28;20523;-74
2023/01/04 05:48:08;;;;;;;1.55;0.50;;;20.40;73.40;;;;;;5032970;28;20033;-74
2023/01/04 05:50:33;;;;;;;1.85;0.50;;;20.40;73.40;;;;;;5034650;28;20042;-74
2023/01/04 05:52:59;;;;;;;1.25;0.50;;;20.40;73.40;;;;;;5032650;28;20056;-74
2023/01/04 05:55:25;;;;;;;1.83;0.60;;;20.40;73.40;;;;;;5034142;28;20021;-74
2023/01/04 05:57:50;;;;;;;1.23;0.50;;;20.40;73.40;;;;;;5034032;28;20039;-74
2023/01/04 06:00:16;;;;;;;1.23;0.40;;;20.40;73.40;;;;;;5032651;28;20018;-74
2023/01/04 06:02:42;;;;;;;3.42;0.43;;;20.40;73.40;;;;;;5032630;28;20081;-74
2023/01/04 06:05:09;;;;;;;1.60;0.57;;;20.40;73.40;;;;;;5032773;28;20028;-74
2023/01/04 06:07:35;;;;;;;1.77;0.60;;;20.40;73.40;;;;;;5033954;28;20094;-74
2023/01/04 06:10:00;;;;;;;1.30;0.50;;;20.40;73.50;;;;;;5032508;28;20480;-74
2023/01/04 06:12:26;;;;;;;2.28;0.30;;;20.40;73.50;;;;;;5033663;28;20057;-74
2023/01/04 06:14:52;;;;;;;1.42;0.45;;;20.40;73.50;;;;;;5032581;28;20025;-74
2023/01/04 06:17:17;;;;;;;3.67;0.80;;;20.40;73.50;;;;;;5032543;28;20037;-74
2023/01/04 06:19:43;;;;;;;1.42;0.60;;;20.40;73.50;;;;;;5032384;28;20099;-74
2023/01/04 06:22:09;;;;;;;1.58;0.60;;;20.40;73.50;;;;;;5033490;28;20068;-74
2023/01/04 06:24:34;;;;;;;1.17;0.47;;;20.40;73.50;;;;;;5033787;28;20036;-74
2023/01/04 06:27:00;;;;;;;1.50;0.50;;;20.40;73.50;;;;;;5033646;28;20041;-74
2023/01/04 06:29:26;;;;;;;2.05;0.60;;;20.40;73.50;;;;;;5032530;28;20044;-74
2023/01/04 06:31:52;;;;;;;1.50;0.50;;;20.40;73.50;;;;;;5033618;28;20021;-74
2023/01/04 06:34:17;;;;;;;2.13;0.50;;;20.40;73.50;;;;;;5033294;28;20056;-74
2023/01/04 06:36:43;;;;;;;2.45;0.40;;;20.40;73.60;;;;;;5032055;28;20404;-74
2023/01/04 06:39:09;;;;;;;2.85;0.60;;;20.40;73.50;;;;;;5033165;28;20025;-74
2023/01/04 06:41:35;;;;;;;4.30;0.65;;;20.40;73.50;;;;;;5032225;28;20083;-74
2023/01/04 06:44:00;;;;;;;1.45;0.40;;;20.40;73.50;;;;;;5012824;28;20057;-74
2023/01/04 06:46:26;;;;;;;1.20;0.52;;;20.40;73.50;;;;;;5018932;28;20018;-74
2023/01/04 06:48:52;;;;;;;1.02;0.63;;;20.40;73.50;;;;;;5033071;28;20099;-74
2023/01/04 06:51:21;;;;;;;0.93;0.50;;;20.40;73.50;;;;;;5031447;28;20029;-74
2023/01/04 06:53:47;;;;;;;0.90;0.40;;;20.40;73.50;;;;;;5031651;28;20029;-74
2023/01/04 06:56:13;;;;;;;2.92;0.50;;;20.40;73.50;;;;;;5033255;28;20037;-74
2023/01/04 06:58:38;;;;;;;1.33;0.73;;;20.40;73.50;;;;;;5033212;28;20087;-74
2023/01/04 07:01:04;;;;;;;3.35;0.90;;;20.40;73.70;;;;;;5015273;28;20037;-74
2023/01/04 07:03:30;;;;;;;1.95;0.57;;;20.40;73.70;;;;;;5032972;28;20051;-74
2023/01/04 07:05:55;;;;;;;2.10;0.65;;;20.40;73.70;;;;;;5032976;28;20087;-74
2023/01/04 07:08:21;;;;;;;1.10;0.60;;;20.40;73.60;;;;;;5031641;28;20033;-75
2023/01/04 07:10:46;;;;;;;0.90;0.50;;;20.40;74.70;;;;;;5031681;28;20029;-74
2023/01/04 07:13:13;;;;;;;1.98;0.40;;;20.40;73.70;;;;;;5031327;28;20029;-75
2023/01/04 07:15:39;;;;;;;3.55;0.70;;;20.40;73.70;;;;;;5031793;28;20423;-75
2023/01/04 07:18:04;;;;;;;2.90;0.40;;;20.40;73.60;;;;;;5032716;28;20025;-75
2023/01/04 07:20:30;;;;;;;1.42;0.70;;;20.40;73.60;;;;;;5032788;28;20021;-75
2023/01/04 07:22:56;;;;;;;3.17;0.50;;;20.40;73.50;;;;;;5031322;28;20075;-73
2023/01/04 07:25:21;;;;;;;1.80;0.70;;;20.40;73.60;;;;;;5032591;28;20495;-75
2023/01/04 07:27:53;;;;;;;2.33;0.45;;;20.40;71.20;;;;;;5031609;28;20029;-75
2023/01/04 07:30:20;;;;;;;3.22;0.50;;;20.20;70.40;;;;;;5031283;28;20026;-75
2023/01/04 07:32:45;;;;;;;3.08;0.77;;;20.20;70.50;;;;;;5031194;28;20068;-75
2023/01/04 07:35:11;;;;;;;15.05;0.90;;;20.10;70.60;;;;;;5032281;28;20033;-75
2023/01/04 07:37:36;;;;;;;2.17;0.68;;;20.00;70.60;;;;;;5029631;28;20029;-75
2023/01/04 07:40:02;;;;;;;0.75;0.50;;;20.00;70.70;;;;;;5032191;28;20136;-75
2023/01/04 07:42:28;;;;;;;3.10;0.47;;;19.90;70.70;;;;;;5031748;28;20017;-75
2023/01/04 07:44:54;;;;;;;1.33;0.45;;;19.80;70.70;;;;;;5032194;28;20442;-72
2023/01/04 07:47:19;;;;;;;34.70;5.45;;;19.80;70.80;;;;;;5032269;28;20029;-75
2023/01/04 07:49:47;;;;;;;18.48;3.90;;;19.70;71.40;;;;;;5051777;28;20052;-74
2023/01/04 07:52:13;;;;;;;13.60;2.58;;;19.70;71.70;;;;;;5050586;28;20078;-74
2023/01/04 07:54:39;;;;;;;11.68;2.10;;;19.70;71.70;;;;;;5050470;28;20025;-74
2023/01/04 07:57:04;;;;;;;10.90;2.33;;;19.60;71.80;;;;;;5050432;28;20021;-74
2023/01/04 07:59:30;;;;;;;8.93;2.28;;;19.60;71.80;;;;;;5050586;28;20464;-74
2023/01/04 08:01:55;;;;;;;13.98;2.50;;;19.50;71.90;;;;;;5048639;28;20045;-74
2023/01/04 08:04:22;;;;;;;10.80;2.30;;;19.50;72.20;;;;;;5031244;28;20422;-74
2023/01/04 08:06:48;;;;;;;7.60;2.20;;;19.40;72.20;;;;;;5032658;28;20049;-74
2023/01/04 08:09:13;;;;;;;13.25;2.67;;;19.40;72.30;;;;;;5034304;28;20518;-74
2023/01/04 08:11:39;;;;;;;9.70;2.20;;;19.40;72.20;;;;;;5023550;28;20034;-74
2023/01/04 08:14:05;;;;;;;12.27;3.05;;;19.40;72.20;;;;;;5015421;28;20029;-74
2023/01/04 08:16:35;;;;;;;7.70;1.88;;;19.30;72.20;;;;;;5014565;28;20026;-74
2023/01/04 08:19:06;;;;;;;10.63;2.75;;;19.20;72.20;;;;;;5015006;28;20037;-74
2023/01/04 08:21:33;;;;;;;8.70;2.50;;;19.20;72.40;;;;;;5033871;28;20377;-74
2023/01/04 08:23:59;;;;;;;8.20;2.50;;;19.20;72.40;;;;;;5034149;28;20022;-74
2023/01/04 08:26:25;;;;;;;13.55;2.80;;;19.10;72.40;;;;;;5033834;28;20112;-74
2023/01/04 08:28:50;;;;;;;7.80;2.63;;;19.10;72.40;;;;;;5017444;28;20033;-74
2023/01/04 08:31:21;;;;;;;7.90;2.40;;;19.10;72.50;;;;;;5033895;28;20022;-74
2023/01/04 08:33:47;;;;;;;9.55;2.10;;;19.10;72.50;;;;;;5033922;28;20033;-74
2023/01/04 08:36:26;;;;;;;8.27;2.88;;;19.00;72.50;;;;;;5033350;28;20075;-74
2023/01/04 08:38:54;;;;;;;8.48;2.35;;;19.00;72.60;;;;;;5033754;28;20021;-74
2023/01/04 08:41:19;;;;;;;5.93;1.92;;;19.00;72.70;;;;;;5033779;28;20022;-74
2023/01/04 08:43:45;;;;;;;12.75;2.75;;;18.90;72.70;;;;;;5033828;28;20091;-74
2023/01/04 08:46:11;;;;;;;5.05;2.00;;;18.90;72.80;;;;;;5033941;28;20021;-74
2023/01/04 08:48:37;;;;;;;6.82;1.88;;;18.90;72.80;;;;;;5017107;28;20021;-74
2023/01/04 08:51:05;;;;;;;8.07;2.60;;;18.80;72.70;;;;;;5017016;28;20022;-74
2023/01/04 08:53:31;;;;;;;5.90;2.08;;;18.80;72.70;;;;;;5034515;28;20108;-74
2023/01/04 08:55:58;;;;;;;5.43;1.92;;;18.80;72.90;;;;;;5034742;28;20113;-74
2023/01/04 08:58:24;;;;;;;5.55;2.35;;;18.70;72.80;;;;;;5034405;28;20025;-73
2023/01/04 09:00:49;;;;;;;7.28;1.98;;;18.70;73.00;;;;;;5034689;28;20388;-74
2023/01/04 09:03:15;;;;;;;8.13;2.08;;;18.80;73.00;;;;;;5033006;28;20096;-74
2023/01/04 09:05:43;;;;;;;7.55;2.33;;;18.70;73.10;;;;;;5033220;28;20053;-74
2023/01/04 09:08:09;;;;;;;6.25;1.92;;;18.60;73.10;;;;;;5034595;28;20108;-74
2023/01/04 09:10:38;;;;;;;9.45;1.90;;;18.60;73.10;;;;;;5029384;28;20428;-74
2023/01/04 09:13:04;;;;;;;6.35;1.80;;;18.60;73.20;;;;;;5013304;28;20491;-73
2023/01/04 09:15:31;;;;;;;7.40;2.15;;;18.60;73.30;;;;;;5012957;28;20026;-74
2023/01/04 09:17:57;;;;;;;7.22;2.42;;;18.50;73.30;;;;;;5014608;28;20100;-74
2023/01/04 09:20:22;;;;;;;6.75;2.25;;;18.50;73.30;;;;;;5014197;28;20101;-73
2023/01/04 09:22:48;;;;;;;6.85;2.00;;;18.50;73.40;;;;;;5013059;28;20105;-74
2023/01/04 09:25:13;;;;;;;7.07;2.42;;;18.50;73.50;;;;;;5014502;28;20062;-74
2023/01/04 09:27:39;;;;;;;2.72;1.58;;;18.50;73.50;;;;;;5014227;28;20077;-74
2023/01/04 09:30:06;;;;;;;6.57;2.10;;;18.50;73.70;;;;;;5014319;28;20080;-74
2023/01/04 09:32:31;;;;;;;5.10;1.95;;;18.40;73.70;;;;;;5014100;28;20392;-74
2023/01/04 09:34:57;;;;;;;4.85;1.85;;;18.40;73.70;;;;;;5013821;28;20033;-74
2023/01/04 09:37:22;;;;;;;4.47;1.50;;;18.40;73.70;;;;;;5014033;28;20025;-74
2023/01/04 09:39:48;;;;;;;4.20;1.30;;;18.40;73.70;;;;;;5012936;28;20030;-74
2023/01/04 09:42:22;;;;;;;6.10;2.05;;;18.30;73.80;;;;;;5014109;28;20030;-74
2023/01/04 09:44:50;;;;;;;4.90;1.58;;;18.30;73.80;;;;;;5012795;28;20101;-74
2023/01/04 09:47:42;;;;;;;6.18;1.83;;;18.30;73.90;;;;;;5012777;28;20014;-74
2023/01/04 09:50:23;;;;;;;5.90;1.65;;;18.30;73.90;;;;;;5012867;28;20034;-74
2023/01/04 09:52:49;;;;;;;4.90;1.50;;;18.30;74.00;;;;;;5012655;28;20583;-74
2023/01/04 09:55:20;;;;;;;4.50;1.40;;;18.20;74.00;;;;;;5014003;28;20096;-74
2023/01/04 09:57:52;;;;;;;5.10;1.52;;;18.20;74.00;;;;;;5012574;28;20018;-74
2023/01/04 10:00:20;;;;;;;2.63;1.58;;;18.20;74.20;;;;;;5012626;28;20072;-74
2023/01/04 10:02:47;;;;;;;4.50;1.30;;;18.10;74.10;;;;;;5016820;28;20041;-74
2023/01/04 10:05:25;;;;;;;3.92;1.60;;;18.10;74.10;;;;;;5032361;28;20117;-74
2023/01/04 10:07:50;;;;;;;3.63;1.50;;;18.10;74.20;;;;;;5032033;28;20109;-74
2023/01/04 10:10:18;;;;;;;4.68;1.48;;;18.10;74.20;;;;;;5030710;28;20108;-74
2023/01/04 10:13:04;;;;;;;3.80;1.33;;;18.10;74.30;;;;;;5012324;28;20125;-74
2023/01/04 10:15:48;;;;;;;5.88;1.20;;;18.10;74.30;;;;;;5012096;28;20018;-74
2023/01/04 10:18:16;;;;;;;4.20;1.35;;;18.00;74.30;;;;;;5013101;28;20033;-74
2023/01/04 10:20:55;;;;;;;4.15;1.27;;;18.00;74.40;;;;;;5012144;28;20098;-74
2023/01/04 10:23:40;;;;;;;3.35;1.50;;;18.00;74.50;;;;;;5013318;28;20105;-74
2023/01/04 10:26:17;;;;;;;3.10;1.25;;;18.00;74.50;;;;;;5011588;28;20108;-74
2023/01/04 10:29:12;;;;;;;3.70;1.17;;;18.00;74.50;;;;;;5011787;28;20026;-74
2023/01/04 10:32:01;;;;;;;3.65;1.25;;;17.90;74.50;;;;;;5011477;28;20443;-74
2023/01/04 10:34:38;;;;;;;3.42;1.33;;;17.90;74.50;;;;;;5012614;28;20069;-74
2023/01/04 10:37:26;;;;;;;3.63;1.23;;;17.90;74.50;;;;;;5011915;28;20025;-74
2023/01/04 10:39:55;;;;;;;3.53;1.13;;;17.90;74.60;;;;;;5011827;28;20022;-74
2023/01/04 10:42:35;;;;;;;3.05;1.15;;;17.90;74.50;;;;;;5011820;28;20061;-74
2023/01/04 10:45:12;;;;;;;3.05;1.27;;;17.90;74.70;;;;;;5012888;28;20080;-74
2023/01/04 10:48:19;;;;;;;3.00;1.10;;;17.90;74.80;;;;;;5011486;28;20025;-74
2023/01/04 10:50:47;;;;;;;3.10;1.25;;;17.80;74.70;;;;;;5010651;28;20084;-74
2023/01/04 10:53:26;;;;;;;5.57;1.40;;;17.80;74.70;;;;;;5010817;28;20042;-74
2023/01/04 10:56:13;;;;;;;3.47;1.23;;;17.80;74.80;;;;;;4994372;28;20105;-74
2023/01/04 10:58:42;;;;;;;2.28;1.08;;;17.80;74.80;;;;;;4996842;28;20062;-74
2023/01/04 11:01:43;;;;;;;2.53;1.15;;;17.80;74.80;;;;;;4994280;28;20026;-74
2023/01/04 11:04:22;;;;;;;2.10;0.80;;;17.80;74.70;;;;;;4984159;28;20129;-74
2023/01/04 11:06:48;;;;;;;3.30;1.45;;;17.80;74.80;;;;;;4994089;28;20026;-74
2023/01/04 11:09:21;;;;;;;1.58;1.00;;;17.70;74.80;;;;;;5010644;28;20052;-74
2023/01/04 11:11:47;;;;;;;3.75;1.40;;;17.70;74.80;;;;;;5023919;28;20037;-74
2023/01/04 11:14:12;;;;;;;2.25;1.20;;;17.70;74.80;;;;;;4997423;28;20037;-74
2023/01/04 11:16:39;;;;;;;2.17;0.70;;;17.70;74.80;;;;;;4997250;28;20061;-74
2023/01/04 11:19:04;;;;;;;3.00;1.30;;;17.60;74.70;;;;;;4997351;28;20087;-74
2023/01/04 11:21:40;;;;;;;2.70;1.10;;;17.70;74.80;;;;;;5013449;28;20034;-74
2023/01/04 11:24:06;;;;;;;2.85;0.88;;;17.70;74.80;;;;;;5000412;28;20037;-74
2023/01/04 11:26:40;;;;;;;2.45;1.08;;;17.60;74.80;;;;;;5031229;28;20095;-74
2023/01/04 11:29:12;;;;;;;3.10;0.98;;;17.60;74.80;;;;;;5015033;28;20030;-74
2023/01/04 11:31:54;;;;;;;2.03;1.00;;;17.60;74.90;;;;;;5015161;28;20448;-74
2023/01/04 11:34:20;;;;;;;1.38;0.88;;;17.60;74.90;;;;;;5030691;28;20056;-74
2023/01/04 11:36:46;;;;;;;1.85;0.90;;;17.60;75.00;;;;;;5014450;28;20476;-74
2023/01/04 11:39:25;;;;;;;1.83;1.10;;;17.60;74.90;;;;;;5017553;28;20071;-74
2023/01/04 11:42:03;;;;;;;2.47;1.00;;;17.50;74.80;;;;;;5019398;28;20025;-74
2023/01/04 11:44:30;;;;;;;2.58;1.17;;;17.50;74.80;;;;;;5018462;28;20025;-74
2023/01/04 11:47:13;;;;;;;1.52;0.80;;;17.50;74.80;;;;;;5034750;28;20404;-74
2023/01/04 11:49:38;;;;;;;2.60;0.90;;;17.50;74.90;;;;;;5034901;28;20033;-74
2023/01/04 11:52:05;;;;;;;2.80;0.82;;;17.50;74.80;;;;;;5036000;28;20037;-74
2023/01/04 11:54:30;;;;;;;1.75;0.98;;;17.50;74.80;;;;;;5018354;28;20013;-74
2023/01/04 11:56:57;;;;;;;1.55;0.77;;;17.50;74.90;;;;;;5035777;28;20108;-74
2023/01/04 11:59:23;;;;;;;2.83;1.15;;;17.50;74.90;;;;;;5034464;28;20018;-74
2023/01/04 12:01:50;;;;;;;1.35;0.93;;;17.40;74.90;;;;;;5035546;28;20049;-74
2023/01/04 12:04:21;;;;;;;1.23;0.57;;;17.40;74.90;;;;;;5035638;28;20095;-74
2023/01/04 12:06:49;;;;;;;1.92;0.82;;;17.40;74.90;;;;;;5033992;28;20053;-74
2023/01/04 12:09:16;;;;;;;2.90;0.80;;;17.40;74.90;;;;;;5034560;28;20025;-74
2023/01/04 12:11:44;;;;;;;1.08;0.70;;;17.40;74.90;;;;;;5021420;28;20033;-74
2023/01/04 12:14:42;;;;;;;1.52;0.77;;;17.40;75.00;;;;;;5014391;28;20026;-74
2023/01/04 12:17:18;;;;;;;1.60;0.90;;;17.40;74.90;;;;;;5011517;28;20034;-74
2023/01/04 12:19:44;;;;;;;4.05;1.00;;;17.30;74.90;;;;;;5014274;28;20026;-74
2023/01/04 12:22:36;;;;;;;1.42;0.70;;;17.40;74.90;;;;;;5014459;28;20025;-74
2023/01/04 12:25:03;;;;;;;1.77;0.98;;;17.30;75.00;;;;;;5012021;28;20092;-74
2023/01/04 12:27:28;;;;;;;1.00;0.90;;;17.30;75.00;;;;;;5014177;28;20030;-74
2023/01/04 12:30:01;;;;;;;0.88;0.60;;;17.30;75.00;;;;;;5014427;28;20459;-74
2023/01/04 12:32:27;;;;;;;1.13;0.88;;;17.30;75.00;;;;;;5014410;28;20105;-74
2023/01/04 12:34:53;;;;;;;2.47;0.90;;;17.30;75.00;;;;;;5015164;28;20113;-74
2023/01/04 12:37:48;;;;;;;1.63;0.75;;;17.30;75.00;;;;;;5014302;28;20033;-74
2023/01/04 12:40:45;;;;;;;1.52;0.70;;;17.30;75.10;;;;;;5015237;28;20029;-74
2023/01/04 12:43:13;;;;;;;1.75;0.70;;;17.30;75.00;;;;;;5015199;28;20030;-74
2023/01/04 12:45:39;;;;;;;1.42;0.80;;;17.30;75.10;;;;;;5015011;28;20110;-74
2023/01/04 12:51:18;;;;;;;1.80;0.60;;;17.20;75.10;;;;;;5014377;28;20159;-74
2023/01/04 12:53:57;;;;;;;;;;;17.20;75.00;;;;;;5014076;28;20088;-74
2023/01/04 12:56:22;;;;;;;1.10;0.77;;;17.20;75.20;;;;;;5046620;28;19956;-74
2023/01/04 12:59:09;;;;;;;1.33;0.65;;;17.20;75.10;;;;;;5013707;28;20057;-74
2023/01/04 13:01:35;;;;;;;2.08;0.60;;;17.20;75.20;;;;;;5014595;28;20045;-74
2023/01/04 13:04:25;;;;;;;1.35;0.70;;;17.20;75.20;;;;;;5028473;28;20113;-74
2023/01/04 13:06:51;;;;;;;0.98;0.55;;;17.20;75.20;;;;;;5034281;28;20053;-74
2023/01/04 13:09:21;;;;;;;2.30;0.90;;;17.20;75.20;;;;;;5033443;28;20060;-74
2023/01/04 13:12:02;;;;;;;0.68;0.50;;;17.20;75.30;;;;;;5019586;28;20026;-74
2023/01/04 13:14:33;;;;;;;1.17;0.60;;;17.10;75.20;;;;;;5014821;28;20029;-74
2023/01/04 13:17:12;;;;;;;1.20;0.70;;;17.10;75.20;;;;;;5013347;28;20543;-74
2023/01/04 13:19:38;;;;;;;1.75;0.60;;;17.10;75.20;;;;;;5013201;28;20014;-74
2023/01/04 13:22:09;;;;;;;2.22;0.55;;;17.10;75.20;;;;;;5013221;28;20088;-74
2023/01/04 13:24:34;;;;;;;1.02;0.60;;;17.10;75.50;;;;;;5013111;28;20030;-74
2023/01/04 13:27:23;;;;;;;2.60;0.70;;;17.10;75.30;;;;;;5013028;28;20443;-74
2023/01/04 13:29:50;;;;;;;1.17;0.50;;;17.10;75.30;;;;;;5010206;28;20038;-74
2023/01/04 13:32:23;;;;;;;0.90;0.50;;;17.10;75.30;;;;;;5014226;28;20030;-74
2023/01/04 13:35:03;;;;;;;0.88;0.60;;;17.10;75.30;;;;;;5012813;28;20073;-74
2023/01/04 13:37:30;;;;;;;0.73;0.65;;;17.00;75.30;;;;;;5012960;28;20022;-74
2023/01/04 13:40:00;;;;;;;1.52;0.50;;;17.10;75.40;;;;;;5012703;28;20101;-74
2023/01/04 13:42:31;;;;;;;0.80;0.50;;;17.00;75.30;;;;;;5012989;28;20396;-74
2023/01/04 13:45:18;;;;;;;1.25;0.50;;;17.00;75.30;;;;;;5012653;28;20045;-74
2023/01/04 13:47:43;;;;;;;0.60;0.40;;;17.00;75.30;;;;;;5013953;28;20056;-74